createdAt,value
2022-11-24T00:00:49.620Z,16.85
2022-11-24T00:03:58.939Z,19.00
2022-11-24T00:07:01.658Z,20.10
2022-11-24T00:10:05.014Z,18.33
2022-11-24T00:13:07.832Z,16.40
2022-11-24T00:16:19.375Z,18.15
2022-11-24T00:19:22.132Z,13.48
2022-11-24T00:22:24.892Z,14.38
2022-11-24T00:25:27.636Z,15.35
2022-11-24T00:28:30.372Z,13.80
2022-11-24T00:31:39.307Z,15.07
2022-11-24T00:34:42.137Z,10.48
2022-11-24T00:37:44.807Z,10.60
2022-11-24T00:40:47.553Z,9.43
2022-11-24T00:43:51.053Z,9.97
2022-11-24T00:46:53.946Z,9.20
2022-11-24T00:49:56.839Z,9.20
2022-11-24T00:52:59.561Z,8.60
2022-11-24T00:56:04.150Z,10.32
2022-11-24T00:59:06.869Z,8.67
2022-11-24T01:02:09.735Z,9.20
2022-11-24T01:05:12.709Z,11.18
2022-11-24T01:08:15.475Z,8.93
2022-11-24T01:11:50.422Z,10.95
2022-11-24T01:14:53.181Z,9.40
2022-11-24T01:17:56.798Z,10.80
2022-11-24T01:21:07.202Z,10.50
2022-11-24T01:24:13.399Z,9.88
2022-11-24T01:27:16.422Z,11.98
2022-11-24T01:30:19.200Z,9.63
2022-11-24T01:33:21.946Z,7.57
2022-11-24T01:36:26.524Z,10.00
2022-11-24T01:39:29.354Z,9.68
2022-11-24T01:42:51.713Z,11.32
2022-11-24T01:45:56.022Z,8.63
2022-11-24T01:49:19.122Z,10.20
2022-11-24T01:52:39.985Z,10.93
2022-11-24T01:55:42.789Z,9.00
2022-11-24T01:58:49.281Z,11.88
2022-11-24T02:01:53.495Z,11.13
2022-11-24T02:05:01.141Z,8.85
2022-11-24T02:08:05.230Z,11.18
2022-11-24T02:11:08.114Z,8.98
2022-11-24T02:14:14.201Z,11.05
2022-11-24T02:17:16.926Z,8.30
2022-11-24T02:20:19.839Z,9.60
2022-11-24T02:23:44.317Z,10.77
2022-11-24T02:26:49.801Z,7.97
2022-11-24T02:29:52.738Z,9.02
2022-11-24T02:32:55.743Z,10.70
2022-11-24T02:35:58.476Z,9.95
2022-11-24T02:39:01.507Z,9.10
2022-11-24T02:42:09.149Z,12.55
2022-11-24T02:45:13.011Z,8.98
2022-11-24T02:48:16.867Z,10.40
2022-11-24T02:51:19.990Z,10.07
2022-11-24T02:54:22.813Z,10.00
2022-11-24T02:57:25.594Z,11.18
2022-11-24T03:00:28.352Z,9.82
2022-11-24T03:03:31.618Z,15.23
2022-11-24T03:06:34.320Z,9.55
2022-11-24T03:09:38.462Z,10.10
2022-11-24T03:12:41.213Z,11.48
2022-11-24T03:15:44.085Z,11.35
2022-11-24T03:18:48.319Z,10.23
2022-11-24T03:21:51.409Z,13.80
2022-11-24T03:24:54.190Z,10.95
2022-11-24T03:27:58.305Z,10.10
2022-11-24T03:31:02.297Z,12.80
2022-11-24T03:34:05.199Z,11.43
2022-11-24T03:37:07.957Z,13.68
2022-11-24T03:40:11.095Z,10.05
2022-11-24T03:43:13.951Z,8.98
2022-11-24T03:46:16.701Z,10.30
2022-11-24T03:49:19.396Z,12.27
2022-11-24T03:52:22.120Z,11.57
2022-11-24T03:55:24.901Z,10.68
2022-11-24T03:58:28.390Z,10.75
2022-11-24T04:01:31.274Z,8.43
2022-11-24T04:04:34.574Z,9.93
2022-11-24T04:07:37.609Z,6.25
2022-11-24T04:10:40.406Z,6.65
2022-11-24T04:13:43.157Z,6.30
2022-11-24T04:16:45.821Z,7.55
2022-11-24T04:19:48.587Z,8.13
2022-11-24T04:22:52.147Z,8.52
2022-11-24T04:25:54.930Z,7.22
2022-11-24T04:28:57.761Z,10.48
2022-11-24T04:32:00.504Z,10.55
2022-11-24T04:35:04.528Z,7.40
2022-11-24T04:38:07.322Z,9.98
2022-11-24T04:41:10.141Z,9.60
2022-11-24T04:44:12.811Z,8.65
2022-11-24T04:47:21.631Z,7.53
2022-11-24T04:50:24.482Z,10.50
2022-11-24T04:53:27.169Z,9.30
2022-11-24T04:56:29.882Z,11.82
2022-11-24T04:59:32.855Z,8.02
2022-11-24T05:02:35.542Z,12.00
2022-11-24T05:05:38.267Z,5.83
2022-11-24T05:08:41.012Z,6.03
2022-11-24T05:11:44.372Z,6.68
2022-11-24T05:14:47.102Z,5.75
2022-11-24T05:17:49.845Z,5.82
2022-11-24T05:20:52.896Z,7.77
2022-11-24T05:23:55.717Z,5.68
2022-11-24T05:26:58.659Z,14.23
2022-11-24T05:30:01.607Z,7.00
2022-11-24T05:33:06.954Z,6.53
2022-11-24T05:36:29.987Z,4.87
2022-11-24T05:39:34.822Z,6.57
2022-11-24T05:42:46.268Z,5.60
2022-11-24T05:45:50.240Z,5.47
2022-11-24T05:48:53.142Z,7.80
2022-11-24T05:51:56.610Z,7.80
2022-11-24T05:54:59.426Z,8.35
2022-11-24T05:58:04.649Z,7.15
2022-11-24T06:01:07.819Z,7.28
2022-11-24T06:04:10.707Z,10.38
2022-11-24T06:07:13.955Z,6.30
2022-11-24T06:10:17.879Z,8.00
2022-11-24T06:13:20.777Z,5.68
2022-11-24T06:16:23.976Z,6.72
2022-11-24T06:19:27.178Z,5.15
2022-11-24T06:22:29.992Z,6.83
2022-11-24T06:25:32.884Z,4.78
2022-11-24T06:28:35.984Z,5.75
2022-11-24T06:31:38.906Z,6.65
2022-11-24T06:34:41.805Z,6.82
2022-11-24T06:37:45.896Z,7.43
2022-11-24T06:40:48.835Z,8.13
2022-11-24T06:43:51.606Z,9.05
2022-11-24T06:46:54.414Z,8.73
2022-11-24T06:49:57.222Z,10.40
2022-11-24T06:53:00.280Z,11.53
2022-11-24T06:56:07.458Z,11.13
2022-11-24T06:59:20.749Z,11.75
2022-11-24T07:02:27.603Z,9.93
2022-11-24T07:05:31.739Z,10.48
2022-11-24T07:08:34.558Z,9.60
2022-11-24T07:11:38.017Z,9.93
2022-11-24T07:14:40.954Z,11.23
2022-11-24T07:17:43.863Z,11.13
2022-11-24T07:20:46.742Z,9.82
2022-11-24T07:23:50.921Z,12.30
2022-11-24T07:26:53.788Z,13.10
2022-11-24T07:30:26.362Z,14.23
2022-11-24T07:33:32.869Z,14.02
2022-11-24T07:36:35.711Z,12.25
2022-11-24T07:39:38.808Z,11.80
2022-11-24T07:42:42.239Z,11.98
2022-11-24T07:46:21.667Z,10.48
2022-11-24T07:49:24.806Z,11.00
2022-11-24T07:52:27.676Z,13.27
2022-11-24T07:55:30.962Z,12.10
2022-11-24T07:58:36.208Z,9.02
2022-11-24T08:01:39.487Z,11.90
2022-11-24T08:04:43.825Z,11.73
2022-11-24T08:07:47.741Z,11.25
2022-11-24T08:10:51.741Z,13.40
2022-11-24T08:14:06.308Z,12.23
2022-11-24T08:17:09.883Z,11.48
2022-11-24T08:20:13.162Z,10.88
2022-11-24T08:23:16.297Z,14.43
2022-11-24T08:26:19.575Z,9.63
2022-11-24T08:29:22.469Z,12.25
2022-11-24T08:32:25.432Z,10.35
2022-11-24T08:35:29.397Z,8.38
2022-11-24T08:38:32.516Z,9.18
2022-11-24T08:41:36.064Z,11.07
2022-11-24T08:44:39.008Z,11.40
2022-11-24T08:47:41.708Z,12.23
2022-11-24T08:50:47.934Z,12.48
2022-11-24T08:53:58.523Z,11.15
2022-11-24T08:57:07.493Z,11.07
2022-11-24T09:04:39.228Z,9.75
2022-11-24T09:07:42.113Z,8.98
2022-11-24T09:10:45.624Z,8.55
2022-11-24T09:13:49.465Z,7.50
2022-11-24T09:16:52.497Z,8.70
2022-11-24T09:19:56.136Z,6.63
2022-11-24T09:22:58.941Z,10.15
2022-11-24T09:26:10.115Z,7.45
2022-11-24T09:29:13.891Z,7.33
2022-11-24T09:32:17.183Z,4.95
2022-11-24T09:35:20.224Z,6.15
2022-11-24T09:38:23.334Z,10.13
2022-11-24T09:41:41.738Z,7.68
2022-11-24T09:45:10.529Z,8.20
2022-11-24T09:48:21.883Z,8.50
2022-11-24T09:51:32.618Z,9.50
2022-11-24T09:54:38.708Z,6.78
2022-11-24T09:57:44.223Z,7.70
2022-11-24T10:00:58.844Z,6.13
2022-11-24T10:04:06.359Z,5.32
2022-11-24T10:07:38.282Z,9.95
2022-11-24T10:11:00.961Z,13.30
2022-11-24T10:14:39.572Z,21.25
2022-11-24T10:17:48.119Z,17.50
2022-11-24T10:21:25.177Z,10.88
2022-11-24T10:24:48.130Z,10.25
2022-11-24T10:28:03.990Z,10.48
2022-11-24T10:31:36.199Z,10.60
2022-11-24T10:34:44.128Z,5.43
2022-11-24T10:37:57.185Z,7.20
2022-11-24T10:41:14.673Z,9.35
2022-11-24T10:44:17.488Z,13.40
2022-11-24T10:47:22.979Z,9.52
2022-11-24T10:50:33.370Z,6.87
2022-11-24T10:53:41.244Z,6.43
2022-11-24T10:56:47.200Z,10.55
2022-11-24T10:59:50.252Z,6.45
2022-11-24T11:03:17.802Z,5.50
2022-11-24T11:06:29.488Z,4.00
2022-11-24T11:09:37.087Z,6.57
2022-11-24T11:12:45.022Z,5.45
2022-11-24T11:15:48.392Z,6.28
2022-11-24T11:18:52.863Z,8.45
2022-11-24T11:22:14.658Z,8.67
2022-11-24T11:25:27.750Z,7.88
2022-11-24T11:28:36.231Z,4.43
2022-11-24T11:31:40.305Z,6.03
2022-11-24T11:34:43.829Z,6.38
2022-11-24T11:37:49.846Z,9.07
2022-11-24T11:40:52.851Z,6.90
2022-11-24T11:44:28.015Z,6.38
2022-11-24T11:47:38.502Z,6.85
2022-11-24T11:51:28.284Z,5.65
2022-11-24T11:54:37.418Z,4.93
2022-11-24T11:57:58.952Z,9.05
2022-11-24T12:01:05.160Z,6.22
2022-11-24T12:04:21.787Z,6.95
2022-11-24T12:13:17.522Z,9.80
2022-11-24T12:16:49.473Z,5.20
2022-11-24T12:20:03.465Z,6.63
2022-11-24T12:23:26.727Z,15.90
2022-11-24T12:26:42.262Z,11.65
2022-11-24T12:29:51.704Z,23.67
2022-11-24T12:33:26.102Z,5.68
2022-11-24T12:36:55.538Z,8.15
2022-11-24T12:40:12.732Z,4.85
2022-11-24T12:43:33.743Z,4.38
2022-11-24T12:46:57.516Z,4.27
2022-11-24T12:50:09.234Z,6.57
2022-11-24T12:53:24.517Z,5.82
2022-11-24T12:57:07.772Z,4.93
2022-11-24T13:00:21.997Z,4.38
2022-11-24T13:03:24.739Z,5.67
2022-11-24T13:06:49.286Z,5.10
2022-11-24T13:14:16.827Z,4.38
2022-11-24T13:17:50.311Z,9.05
2022-11-24T13:20:57.428Z,5.70
2022-11-24T13:24:06.458Z,5.95
2022-11-24T13:27:26.859Z,8.98
2022-11-24T13:30:35.948Z,6.20
2022-11-24T13:33:42.123Z,7.50
2022-11-24T13:36:53.815Z,6.43
2022-11-24T13:39:59.496Z,8.10
2022-11-24T13:43:02.866Z,7.53
2022-11-24T13:46:09.910Z,11.27
2022-11-24T13:49:21.037Z,8.68
2022-11-24T13:52:39.687Z,9.47
2022-11-24T13:55:56.602Z,7.32
2022-11-24T13:59:03.261Z,7.38
2022-11-24T14:02:21.939Z,11.57
2022-11-24T14:05:38.010Z,10.48
2022-11-24T14:08:41.306Z,10.90
2022-11-24T14:11:47.000Z,12.45
2022-11-24T14:14:57.343Z,11.85
2022-11-24T14:18:00.355Z,11.05
2022-11-24T14:21:27.978Z,15.10
2022-11-24T14:24:39.698Z,11.87
2022-11-24T14:27:43.068Z,11.60
2022-11-24T14:30:50.438Z,10.18
2022-11-24T14:34:11.436Z,8.55
2022-11-24T14:37:14.236Z,9.23
2022-11-24T14:40:45.119Z,7.83
2022-11-24T14:43:47.859Z,7.38
2022-11-24T14:46:51.631Z,8.45
2022-11-24T14:49:55.779Z,5.07
2022-11-24T14:52:59.308Z,4.38
2022-11-24T14:56:36.083Z,8.30
2022-11-24T14:59:39.658Z,7.32
2022-11-24T15:02:48.573Z,11.35
2022-11-24T15:06:00.614Z,8.25
2022-11-24T15:09:03.608Z,10.38
2022-11-24T15:12:08.835Z,15.17
2022-11-24T15:15:14.820Z,13.95
2022-11-24T15:18:31.651Z,9.38
2022-11-24T15:21:36.787Z,8.07
2022-11-24T15:24:51.407Z,6.50
2022-11-24T15:27:54.449Z,6.17
2022-11-24T15:31:02.196Z,6.43
2022-11-24T15:34:05.100Z,12.05
2022-11-24T15:37:10.881Z,9.32
2022-11-24T15:40:14.310Z,9.40
2022-11-24T15:43:30.927Z,13.90
2022-11-24T15:46:38.451Z,30.55
2022-11-24T15:49:41.647Z,23.48
2022-11-24T15:52:45.307Z,15.20
2022-11-24T15:55:48.916Z,11.65
2022-11-24T15:58:52.883Z,9.77
2022-11-24T16:01:55.680Z,12.70
2022-11-24T16:04:59.376Z,12.18
2022-11-24T16:08:02.169Z,11.90
2022-11-24T16:11:04.919Z,20.17
2022-11-24T16:14:07.698Z,14.37
2022-11-24T16:17:10.561Z,13.80
2022-11-24T16:20:13.670Z,14.98
2022-11-24T16:23:16.870Z,12.38
2022-11-24T16:26:19.691Z,11.35
2022-11-24T16:29:23.900Z,7.50
2022-11-24T16:32:26.622Z,8.23
2022-11-24T16:35:29.319Z,9.55
2022-11-24T16:38:32.593Z,12.75
2022-11-24T16:41:35.699Z,12.73
2022-11-24T16:44:38.683Z,10.57
2022-11-24T16:47:43.074Z,12.23
2022-11-24T16:50:46.027Z,10.85
2022-11-24T16:53:56.616Z,16.20
2022-11-24T16:56:59.454Z,23.27
2022-11-24T17:00:02.451Z,20.50
2022-11-24T17:03:05.745Z,19.27
2022-11-24T17:06:15.931Z,27.77
2022-11-24T17:09:19.235Z,18.63
2022-11-24T17:12:22.105Z,14.70
2022-11-24T17:15:33.707Z,12.80
2022-11-24T17:18:39.138Z,20.73
2022-11-24T17:21:43.309Z,18.67
2022-11-24T17:24:46.169Z,22.20
2022-11-24T17:27:49.055Z,23.98
2022-11-24T17:30:52.134Z,23.73
2022-11-24T17:33:57.516Z,17.30
2022-11-24T17:37:00.518Z,17.10
2022-11-24T17:40:27.372Z,21.80
2022-11-24T17:43:27.818Z,47.58
2022-11-24T17:46:31.556Z,50.23
2022-11-24T17:49:34.472Z,32.17
2022-11-24T17:52:37.417Z,33.13
2022-11-24T17:55:41.040Z,24.10
2022-11-24T17:58:44.783Z,21.40
2022-11-24T18:01:47.841Z,25.23
2022-11-24T18:04:50.808Z,21.65
2022-11-24T18:07:55.350Z,22.50
2022-11-24T18:11:04.201Z,21.42
2022-11-24T18:14:07.314Z,17.15
2022-11-24T18:17:10.518Z,14.93
2022-11-24T18:20:18.948Z,12.00
2022-11-24T18:23:21.917Z,12.00
2022-11-24T18:26:25.050Z,16.40
2022-11-24T18:29:28.032Z,20.17
2022-11-24T18:32:32.725Z,25.43
2022-11-24T18:35:35.942Z,26.85
2022-11-24T18:38:39.346Z,21.33
2022-11-24T18:41:42.144Z,22.38
2022-11-24T18:44:48.603Z,21.13
2022-11-24T18:47:54.178Z,19.90
2022-11-24T18:50:57.672Z,17.83
2022-11-24T18:54:03.115Z,17.60
2022-11-24T18:57:06.360Z,22.08
2022-11-24T19:00:10.576Z,30.50
2022-11-24T19:03:14.924Z,26.03
2022-11-24T19:06:21.409Z,19.80
2022-11-24T19:09:25.653Z,19.50
2022-11-24T19:12:29.088Z,12.30
2022-11-24T19:15:34.301Z,9.82
2022-11-24T19:18:37.383Z,11.37
2022-11-24T19:21:41.273Z,20.98
2022-11-24T19:24:47.456Z,22.00
2022-11-24T19:27:50.708Z,19.02
2022-11-24T19:30:53.917Z,18.02
2022-11-24T19:33:58.966Z,19.07
2022-11-24T19:37:02.052Z,25.42
2022-11-24T19:40:06.340Z,23.70
2022-11-24T19:43:09.182Z,15.15
2022-11-24T19:46:15.198Z,17.33
2022-11-24T19:49:18.290Z,15.33
2022-11-24T19:52:21.719Z,18.45
2022-11-24T19:55:24.888Z,20.80
2022-11-24T19:58:29.988Z,12.93
2022-11-24T20:01:36.223Z,10.27
2022-11-24T20:04:41.439Z,11.50
2022-11-24T20:07:44.740Z,10.05
2022-11-24T20:10:47.513Z,13.40
2022-11-24T20:13:51.837Z,14.38
2022-11-24T20:16:54.942Z,10.05
2022-11-24T20:19:58.065Z,15.17
2022-11-24T20:23:01.313Z,16.50
2022-11-24T20:26:13.636Z,17.52
2022-11-24T20:29:18.456Z,18.67
2022-11-24T20:32:21.526Z,20.42
2022-11-24T20:35:24.597Z,14.83
2022-11-24T20:38:29.433Z,13.68
2022-11-24T20:41:34.953Z,13.15
2022-11-24T20:44:38.257Z,15.35
2022-11-24T20:47:41.075Z,11.77
2022-11-24T20:50:49.746Z,10.23
2022-11-24T20:53:57.698Z,13.77
2022-11-24T20:57:00.751Z,14.05
2022-11-24T21:00:04.573Z,15.35
2022-11-24T21:03:08.557Z,14.07
2022-11-24T21:06:13.304Z,14.50
2022-11-24T21:09:17.135Z,13.88
2022-11-24T21:12:20.014Z,16.10
2022-11-24T21:15:24.015Z,16.48
2022-11-24T21:18:27.138Z,15.20
2022-11-24T21:21:34.352Z,14.17
2022-11-24T21:24:37.346Z,20.27
2022-11-24T21:27:40.721Z,17.90
2022-11-24T21:30:43.609Z,18.25
2022-11-24T21:33:48.524Z,10.35
2022-11-24T21:36:51.337Z,12.53
2022-11-24T21:39:54.097Z,10.35
2022-11-24T21:42:59.506Z,9.40
2022-11-24T21:46:07.292Z,10.50
2022-11-24T21:49:10.966Z,9.52
2022-11-24T21:52:13.847Z,10.03
2022-11-24T21:55:16.897Z,15.48
2022-11-24T21:58:19.729Z,17.80
2022-11-24T22:01:25.936Z,18.13
2022-11-24T22:04:28.920Z,18.77
2022-11-24T22:07:34.875Z,17.57
2022-11-24T22:10:37.753Z,19.98
2022-11-24T22:13:41.388Z,18.50
2022-11-24T22:16:44.391Z,22.38
2022-11-24T22:19:48.155Z,21.95
2022-11-24T22:22:50.965Z,21.93
2022-11-24T22:25:53.764Z,16.40
2022-11-24T22:28:58.203Z,19.58
2022-11-24T22:32:01.088Z,17.20
2022-11-24T22:35:04.431Z,23.85
2022-11-24T22:38:07.265Z,15.13
2022-11-24T22:41:12.457Z,15.70
2022-11-24T22:44:15.202Z,15.48
2022-11-24T22:47:17.915Z,13.95
2022-11-24T22:50:20.838Z,14.98
2022-11-24T22:53:23.583Z,12.03
2022-11-24T22:56:32.468Z,6.47
2022-11-24T22:59:35.900Z,5.22
2022-11-24T23:02:38.609Z,5.90
2022-11-24T23:05:41.753Z,9.70
2022-11-24T23:08:44.724Z,12.37
2022-11-24T23:11:47.598Z,7.78
2022-11-24T23:14:50.414Z,6.00
2022-11-24T23:17:53.168Z,11.25
2022-11-24T23:20:56.810Z,7.25
2022-11-24T23:24:01.776Z,7.30
2022-11-24T23:27:05.562Z,5.43
2022-11-24T23:30:08.939Z,5.47
2022-11-24T23:33:11.719Z,4.60
2022-11-24T23:36:17.484Z,4.35
2022-11-24T23:39:20.334Z,7.40
2022-11-24T23:42:23.201Z,5.55
2022-11-24T23:45:26.010Z,5.90
2022-11-24T23:48:29.263Z,3.78
2022-11-24T23:51:33.574Z,5.45
2022-11-24T23:54:36.649Z,6.40
2022-11-24T23:57:39.607Z,4.25
